Time;durP1;ratioP1;P1;durP2;ratioP2;P2;SDS_P1;SDS_P2;PMS_P1;PMS_P2;Temp;Humidity;BMP_temperature;BMP_pressure;BME280_temperature;BME280_humidity;BME280_pressure;Samples;Min_cycle;Max_cycle;Signal;HPM_P1;HPM_P2
2021/12/07 00:00:47;;;;;;;23.83;10.95;;;;;;;-2.16;69.19;100017.31;5049061;28;20112;-57
2021/12/07 00:03:12;;;;;;;20.85;9.93;;;;;;;-2.12;68.46;100013.69;5047719;28;20103;-56
2021/12/07 00:05:38;;;;;;;19.65;10.48;;;;;;;-2.13;68.85;100003.25;5048563;28;20068;-59
2021/12/07 00:08:04;;;;;;;19.95;10.25;;;;;;;-2.22;69.22;100001.72;5051794;28;20033;-57
2021/12/07 00:10:30;;;;;;;22.23;11.18;;;;;;;-2.24;70.26;100014.03;5052930;28;20033;-58
2021/12/07 00:12:56;;;;;;;23.17;11.23;;;;;;;-2.11;69.44;100001.47;5052626;28;20072;-59
2021/12/07 00:15:23;;;;;;;21.67;9.95;;;;;;;-2.05;68.57;99993.41;5054065;28;20025;-56
2021/12/07 00:17:49;;;;;;;22.70;10.75;;;;;;;-2.14;69.63;99988.41;5054564;28;20044;-56
2021/12/07 00:20:17;;;;;;;21.20;10.88;;;;;;;-2.15;69.60;99981.44;5054778;28;20025;-56
2021/12/07 00:22:46;;;;;;;23.52;10.55;;;;;;;-2.15;70.13;99984.06;5054139;28;20469;-58
2021/12/07 00:25:13;;;;;;;22.10;10.52;;;;;;;-2.10;70.02;99977.78;5053070;28;20045;-57
2021/12/07 00:27:39;;;;;;;22.17;11.05;;;;;;;-2.09;69.81;99973.41;5054639;28;20477;-57
2021/12/07 00:30:07;;;;;;;24.88;10.73;;;;;;;-2.03;70.41;99957.50;5054373;28;20037;-59
2021/12/07 00:32:38;;;;;;;22.42;11.25;;;;;;;-1.89;69.69;99979.00;5054220;28;20465;-57
2021/12/07 00:37:55;;;;;;;20.20;9.45;;;;;;;-1.92;69.75;99951.97;5054306;28;20025;-54
2021/12/07 00:40:22;;;;;;;21.80;10.43;;;;;;;-1.94;69.16;99952.00;5054207;28;20079;-58
2021/12/07 00:42:48;;;;;;;23.35;11.20;;;;;;;-1.99;69.86;99947.81;5054045;28;20029;-58
2021/12/07 00:45:18;;;;;;;23.08;10.95;;;;;;;-1.89;68.93;99951.88;5054066;28;20358;-57
2021/12/07 00:47:43;;;;;;;26.40;11.75;;;;;;;-1.94;69.26;99948.53;5054212;28;20033;-60
2021/12/07 00:50:10;;;;;;;23.83;10.52;;;;;;;-2.01;69.73;99934.72;5054137;28;20075;-57
2021/12/07 00:52:36;;;;;;;23.05;11.45;;;;;;;-2.03;69.81;99960.13;5053943;28;20033;-57
2021/12/07 00:55:08;;;;;;;21.48;10.10;;;;;;;-1.90;69.92;99934.41;5053535;28;20079;-55
2021/12/07 00:57:34;;;;;;;21.17;10.45;;;;;;;-1.91;69.04;99938.81;5052618;28;20385;-58
2021/12/07 01:00:00;;;;;;;20.02;9.38;;;;;;;-1.96;69.40;99932.81;5053789;28;20040;-59
2021/12/07 01:02:26;;;;;;;22.63;10.35;;;;;;;-2.06;69.26;99919.09;5053578;28;20482;-57
2021/12/07 01:04:57;;;;;;;19.85;10.38;;;;;;;-2.05;69.90;99915.59;5053280;28;20148;-56
2021/12/07 01:26:29;;;;;;;19.33;11.18;;;;;;;-1.72;69.59;99922.53;5053023;28;20036;-59
2021/12/07 01:28:55;;;;;;;20.58;10.55;;;;;;;-1.76;69.16;99899.91;5052977;28;20043;-57
2021/12/07 01:31:31;;;;;;;21.52;10.98;;;;;;;-1.82;69.56;99886.97;5052845;28;20178;-55
2021/12/07 01:36:44;;;;;;;24.15;12.45;;;;;;;-1.78;69.62;99886.84;5053178;28;20078;-57
2021/12/07 01:45:03;;;;;;;19.38;8.32;;;;;;;-1.72;69.54;99880.53;5052942;28;20032;-57
2021/12/07 01:52:46;;;;;;;20.02;10.10;;;;;;;-2.00;69.26;99813.09;5052552;28;20025;-56
2021/12/07 02:00:31;;;;;;;20.58;8.20;;;;;;;-1.71;69.74;99863.88;5052406;28;20028;-58
2021/12/07 02:02:56;;;;;;;21.88;10.70;;;;;;;-1.74;69.69;99851.72;5052350;28;20527;-59
2021/12/07 02:05:22;;;;;;;21.67;11.27;;;;;;;-1.77;69.64;99841.31;5051366;28;20052;-57
2021/12/07 02:07:48;;;;;;;19.90;10.55;;;;;;;-1.67;69.42;99860.28;5052178;28;20074;-58
2021/12/07 02:10:18;;;;;;;20.50;10.25;;;;;;;-1.71;69.98;99842.88;5052263;28;20029;-57
2021/12/07 02:12:46;;;;;;;19.85;10.30;;;;;;;-1.62;69.79;99844.38;5052347;28;20480;-57
2021/12/07 02:15:16;;;;;;;20.50;11.02;;;;;;;-1.69;69.62;99833.19;5051657;28;20454;-55
2021/12/07 02:17:42;;;;;;;16.80;9.05;;;;;;;-1.62;69.74;99844.38;5052296;28;20465;-55
2021/12/07 02:20:09;;;;;;;18.90;10.38;;;;;;;-1.69;69.50;99858.59;5052045;28;20471;-60
2021/12/07 02:22:36;;;;;;;15.52;8.65;;;;;;;-1.85;70.46;99821.44;5052531;28;20457;-56
2021/12/07 02:25:04;;;;;;;21.60;10.63;;;;;;;-1.65;69.48;99829.59;5052244;28;20044;-57
2021/12/07 02:27:30;;;;;;;17.88;9.40;;;;;;;-1.73;69.92;99816.69;5051674;28;20037;-57
2021/12/07 02:29:56;;;;;;;20.35;10.57;;;;;;;-1.72;70.25;99814.91;5051290;28;20381;-58
2021/12/07 02:32:21;;;;;;;21.83;10.95;;;;;;;-1.68;69.69;99800.81;5052314;28;20029;-55
2021/12/07 02:34:57;;;;;;;21.55;10.43;;;;;;;-1.70;70.23;99815.72;5052087;28;20094;-58
2021/12/07 02:37:23;;;;;;;;;;;;;;;-1.50;69.58;99815.13;5052111;28;20029;-59
2021/12/07 02:39:49;;;;;;;21.33;11.23;;;;;;;-1.68;69.96;99805.19;5051409;28;20323;-59
2021/12/07 02:42:15;;;;;;;21.20;11.25;;;;;;;-1.72;70.40;99822.78;5052314;28;20544;-55
2021/12/07 02:44:41;;;;;;;18.92;10.48;;;;;;;-1.71;70.18;99808.75;5051950;28;20119;-60
2021/12/07 02:47:06;;;;;;;22.73;11.63;;;;;;;-1.62;70.26;99808.50;5051292;28;20029;-58
2021/12/07 02:49:32;;;;;;;18.73;11.13;;;;;;;-1.72;70.46;99804.41;5051535;28;20108;-58
2021/12/07 02:51:58;;;;;;;21.02;11.15;;;;;;;-1.70;70.61;99799.97;5051750;28;20029;-54
2021/12/07 02:54:23;;;;;;;20.92;11.50;;;;;;;-1.79;71.21;99805.50;5051730;28;20588;-59
2021/12/07 02:56:51;;;;;;;22.17;10.93;;;;;;;-1.70;71.22;99797.34;5051252;28;20484;-57
2021/12/07 02:59:18;;;;;;;21.33;12.27;;;;;;;-1.59;70.30;99795.28;5051949;28;20025;-57
2021/12/07 03:01:49;;;;;;;21.10;11.05;;;;;;;-1.62;70.89;99794.50;5051468;28;20115;-57
2021/12/07 03:04:23;;;;;;;21.10;11.18;;;;;;;-1.52;70.21;99781.94;5050985;28;20063;-56
2021/12/07 03:10:13;;;;;;;23.75;12.25;;;;;;;-1.54;70.79;99774.13;5051560;28;20083;-56
2021/12/07 03:26:00;;;;;;;21.73;12.60;;;;;;;-1.37;69.61;99756.94;5051211;28;20051;-55
2021/12/07 03:28:28;;;;;;;23.67;12.07;;;;;;;-1.36;70.25;99735.91;5051076;28;20041;-56
2021/12/07 03:30:53;;;;;;;22.77;11.73;;;;;;;-1.43;70.33;99737.03;5051528;28;20032;-54
2021/12/07 03:33:19;;;;;;;21.60;10.98;;;;;;;-1.49;70.29;99735.44;5051048;28;20049;-55
2021/12/07 03:35:45;;;;;;;19.98;11.07;;;;;;;-1.44;70.65;99719.56;5050947;28;20145;-56
2021/12/07 03:38:11;;;;;;;23.50;12.88;;;;;;;-1.52;71.02;99716.28;5051139;28;20450;-52
2021/12/07 03:40:38;;;;;;;20.13;12.25;;;;;;;-1.54;71.52;99720.75;5051661;28;20029;-55
2021/12/07 03:43:04;;;;;;;19.35;10.15;;;;;;;-1.48;70.81;99713.53;5053875;28;20488;-57
2021/12/07 03:45:32;;;;;;;25.38;13.38;;;;;;;-1.45;70.76;99707.31;5055032;28;20130;-53
2021/12/07 03:47:59;;;;;;;25.88;13.60;;;;;;;-1.52;71.13;99708.41;5054733;28;20143;-56
2021/12/07 03:50:25;;;;;;;29.40;14.30;;;;;;;-1.54;71.36;99704.97;5053706;28;20025;-54
2021/12/07 03:52:52;;;;;;;23.60;13.38;;;;;;;-1.51;70.88;99703.13;5055302;28;20457;-57
2021/12/07 03:55:18;;;;;;;27.50;13.80;;;;;;;-1.51;71.80;99694.38;5054868;28;20068;-56
2021/12/07 03:57:44;;;;;;;21.02;10.50;;;;;;;-1.46;71.45;99692.44;5054714;28;20108;-55
2021/12/07 04:00:16;;;;;;;23.08;12.38;;;;;;;-1.42;71.11;99688.84;5053882;28;20557;-57
2021/12/07 04:02:43;;;;;;;25.42;14.02;;;;;;;-1.44;71.18;99701.16;5054667;28;20445;-59
2021/12/07 04:05:14;;;;;;;22.02;12.50;;;;;;;-1.41;71.60;99687.94;5053335;28;20064;-58
2021/12/07 04:07:41;;;;;;;20.88;11.25;;;;;;;-1.32;71.30;99699.91;5054689;28;20198;-58
2021/12/07 04:10:12;;;;;;;22.85;12.20;;;;;;;-1.40;71.52;99671.25;5054883;28;20149;-59
2021/12/07 04:12:37;;;;;;;24.55;13.63;;;;;;;-1.43;71.90;99660.88;5054376;28;20599;-57
2021/12/07 04:15:06;;;;;;;22.75;12.60;;;;;;;-1.28;71.25;99674.38;5054311;28;20112;-56
2021/12/07 04:17:32;;;;;;;20.40;12.15;;;;;;;-1.34;71.36;99663.16;5054564;28;20032;-56
2021/12/07 04:19:58;;;;;;;20.50;10.57;;;;;;;-1.17;70.84;99667.00;5054513;28;20036;-57
2021/12/07 04:22:24;;;;;;;22.58;12.85;;;;;;;-1.10;70.27;99662.34;5054576;28;20044;-56
2021/12/07 04:24:50;;;;;;;16.58;9.10;;;;;;;-0.99;69.61;99662.84;5054722;28;20061;-55
2021/12/07 04:27:15;;;;;;;21.85;12.00;;;;;;;-0.95;69.26;99645.22;5054567;28;20174;-56
2021/12/07 04:29:41;;;;;;;20.10;11.77;;;;;;;-1.03;69.62;99648.13;5054520;28;20033;-60
2021/12/07 04:32:07;;;;;;;22.70;12.35;;;;;;;-1.09;69.80;99651.81;5054186;28;20029;-59
2021/12/07 04:34:32;;;;;;;20.90;11.02;;;;;;;-1.04;69.29;99635.88;5053641;28;20033;-58
2021/12/07 04:36:58;;;;;;;21.00;11.88;;;;;;;-1.17;69.87;99641.56;5054186;28;20052;-55
2021/12/07 04:39:23;;;;;;;20.67;12.15;;;;;;;-1.05;69.13;99629.75;5053317;28;20086;-61
2021/12/07 04:41:51;;;;;;;20.27;11.90;;;;;;;-1.07;69.05;99630.75;5053978;28;20021;-54
2021/12/07 04:44:16;;;;;;;14.32;7.13;;;;;;;-1.08;69.23;99624.63;5052840;28;20033;-58
2021/12/07 04:46:54;;;;;;;18.90;10.20;;;;;;;-1.04;68.78;99613.06;5053858;28;20025;-57
2021/12/07 05:00:02;;;;;;;19.00;11.27;;;;;;;-1.18;69.98;99586.47;5053988;28;20047;-54
2021/12/07 05:02:29;;;;;;;23.95;12.45;;;;;;;-1.14;69.82;99597.69;5053298;28;20036;-58
2021/12/07 05:04:55;;;;;;;22.10;12.85;;;;;;;-1.13;70.08;99578.38;5053527;28;20028;-54
2021/12/07 05:07:31;;;;;;;14.57;8.02;;;;;;;-1.09;70.53;99604.50;5053617;28;20397;-54
2021/12/07 05:12:37;;;;;;;21.45;10.20;;;;;;;-1.14;70.31;99576.69;5053682;28;20029;-60
2021/12/07 05:15:17;;;;;;;21.90;12.45;;;;;;;-1.14;70.90;99566.16;5053003;28;20385;-56
2021/12/07 05:40:02;;;;;;;25.92;11.45;;;;;;;-1.04;70.97;99568.41;5050956;28;20042;-56
2021/12/07 05:42:29;;;;;;;25.40;13.13;;;;;;;-1.15;71.45;99562.69;5052515;28;20025;-58
2021/12/07 05:44:55;;;;;;;19.33;11.23;;;;;;;-1.10;71.43;99571.25;5052664;28;20090;-55
2021/12/07 05:47:22;;;;;;;21.38;12.38;;;;;;;-1.06;71.42;99558.88;5052793;28;20064;-58
2021/12/07 05:49:48;;;;;;;21.85;13.60;;;;;;;-1.09;71.69;99548.47;5052652;28;20037;-58
2021/12/07 05:52:14;;;;;;;23.33;12.95;;;;;;;-0.97;71.19;99552.41;5052183;28;20033;-58
2021/12/07 05:54:39;;;;;;;22.15;13.05;;;;;;;-0.98;71.04;99551.56;5052050;28;20029;-53
2021/12/07 05:57:06;;;;;;;21.77;11.23;;;;;;;-1.01;71.14;99542.00;5052923;28;20036;-57
2021/12/07 05:59:32;;;;;;;21.20;11.57;;;;;;;-0.97;71.57;99542.75;5052196;28;20036;-61
2021/12/07 06:01:57;;;;;;;21.25;12.32;;;;;;;-1.22;71.83;99504.28;5046898;28;20021;-61
2021/12/07 06:04:23;;;;;;;22.30;12.27;;;;;;;-0.99;72.18;99534.09;5040077;28;20385;-58
2021/12/07 06:06:48;;;;;;;24.85;12.00;;;;;;;-0.97;72.07;99519.09;5042044;28;20112;-56
2021/12/07 06:09:14;;;;;;;21.17;12.05;;;;;;;-1.16;71.70;99495.31;5039580;28;20021;-56
2021/12/07 06:11:41;;;;;;;18.15;11.20;;;;;;;-0.84;71.12;99543.16;5040771;28;20032;-56
2021/12/07 06:14:07;;;;;;;21.85;11.93;;;;;;;-0.95;71.92;99524.31;5041766;28;20022;-53
2021/12/07 06:16:32;;;;;;;22.35;12.60;;;;;;;-1.18;72.18;99489.25;5040573;28;20039;-56
2021/12/07 06:18:59;;;;;;;17.10;10.15;;;;;;;-0.83;71.76;99549.28;5046234;28;20032;-55
2021/12/07 06:21:26;;;;;;;24.20;11.90;;;;;;;-0.78;71.75;99542.06;5034389;28;20106;-55
2021/12/07 06:23:52;;;;;;;23.73;12.27;;;;;;;-0.78;71.74;99539.44;5051981;28;20037;-53
2021/12/07 06:26:19;;;;;;;23.58;11.13;;;;;;;-0.79;72.18;99543.00;5061643;28;20119;-53
2021/12/07 06:28:45;;;;;;;19.83;11.05;;;;;;;-0.68;71.43;99529.44;5071491;28;20125;-58
2021/12/07 06:31:10;;;;;;;18.70;9.57;;;;;;;-0.93;71.66;99493.59;5071470;28;20037;-59
2021/12/07 06:33:36;;;;;;;15.23;8.00;;;;;;;-0.64;71.83;99544.16;5071872;28;20032;-56
2021/12/07 06:36:04;;;;;;;17.42;6.63;;;;;;;-0.52;71.51;99542.81;5071861;28;20036;-59
2021/12/07 06:38:32;;;;;;;19.50;9.20;;;;;;;-0.54;71.40;99539.41;5071392;28;20488;-58
2021/12/07 06:40:59;;;;;;;16.00;8.70;;;;;;;-0.65;72.15;99526.69;5069274;28;20075;-60
2021/12/07 06:43:25;;;;;;;15.32;8.45;;;;;;;-0.67;72.07;99528.50;5069763;28;20410;-59
2021/12/07 06:45:52;;;;;;;13.55;8.10;;;;;;;-0.61;72.68;99533.53;5069194;28;20077;-60
2021/12/07 06:48:18;;;;;;;13.90;8.15;;;;;;;-0.51;72.31;99531.38;5069428;28;20048;-61
2021/12/07 06:50:43;;;;;;;14.82;7.97;;;;;;;-0.47;71.89;99525.09;5069226;28;20075;-60
2021/12/07 06:53:09;;;;;;;15.05;7.40;;;;;;;-0.51;71.92;99524.34;5069492;28;20093;-56
2021/12/07 06:55:35;;;;;;;11.85;6.82;;;;;;;-0.42;71.62;99512.59;5071291;28;20423;-55
2021/12/07 06:58:02;;;;;;;9.00;5.28;;;;;;;-0.41;71.38;99529.25;5069989;28;20329;-60
2021/12/07 07:00:27;;;;;;;13.90;6.47;;;;;;;-0.49;71.75;99522.50;5071339;28;20036;-55
2021/12/07 07:02:53;;;;;;;9.45;5.68;;;;;;;-0.46;70.71;99497.88;5071457;28;20024;-55
2021/12/07 07:05:19;;;;;;;9.57;5.78;;;;;;;-0.49;71.35;99517.25;5070820;28;20036;-56
2021/12/07 07:07:45;;;;;;;10.32;5.75;;;;;;;-0.54;71.71;99516.56;5070699;28;20116;-59
2021/12/07 07:10:16;;;;;;;8.43;5.18;;;;;;;-0.48;71.78;99495.31;5070965;28;20508;-58
2021/12/07 07:12:42;;;;;;;9.80;6.00;;;;;;;-0.55;72.10;99506.13;5070862;28;20033;-56
2021/12/07 07:15:09;;;;;;;10.80;6.05;;;;;;;-0.47;71.90;99504.03;5070921;28;20031;-56
2021/12/07 07:17:36;;;;;;;9.57;5.68;;;;;;;-0.50;72.20;99515.53;5050332;28;20059;-58
2021/12/07 07:20:03;;;;;;;10.88;5.85;;;;;;;-0.41;71.49;99508.22;5031367;28;20033;-60
2021/12/07 07:22:29;;;;;;;11.18;6.10;;;;;;;-0.35;72.06;99513.22;5031480;28;20037;-59
2021/12/07 07:24:54;;;;;;;8.45;5.60;;;;;;;-0.60;71.71;99451.09;5030617;28;20398;-62
2021/12/07 07:27:21;;;;;;;8.70;5.55;;;;;;;-0.23;71.45;99496.94;5030672;28;20049;-64
2021/12/07 07:29:47;;;;;;;11.43;5.45;;;;;;;-0.19;71.63;99502.91;5029964;28;20037;-64
2021/12/07 07:32:12;;;;;;;10.52;5.88;;;;;;;-0.06;70.80;99488.34;5029448;28;20095;-61
2021/12/07 07:34:38;;;;;;;11.50;5.07;;;;;;;0.03;70.25;99502.00;5029801;28;20037;-59
2021/12/07 07:37:04;;;;;;;9.90;5.43;;;;;;;-0.11;71.10;99486.81;5029069;28;20112;-55
2021/12/07 07:39:29;;;;;;;10.50;5.40;;;;;;;0.05;70.49;99484.38;5030957;28;20033;-57
2021/12/07 07:41:55;;;;;;;9.38;5.13;;;;;;;0.08;70.34;99482.47;5030954;28;20083;-60
2021/12/07 07:44:20;;;;;;;8.02;4.70;;;;;;;0.05;70.27;99479.13;5030955;28;20044;-57
2021/12/07 07:46:46;;;;;;;10.73;5.20;;;;;;;-0.04;70.64;99481.22;5030843;28;20028;-57
2021/12/07 07:49:11;;;;;;;14.93;5.43;;;;;;;0.08;70.06;99479.84;5030441;28;20378;-58
2021/12/07 07:51:37;;;;;;;9.20;5.35;;;;;;;0.04;70.05;99473.00;5031326;28;20137;-56
2021/12/07 07:54:04;;;;;;;9.90;4.88;;;;;;;0.02;70.33;99459.06;5025909;28;20029;-60
2021/12/07 07:56:29;;;;;;;8.15;4.82;;;;;;;0.03;70.31;99492.38;5028774;28;20489;-55
2021/12/07 07:58:56;;;;;;;6.68;4.45;;;;;;;-0.17;70.15;99432.66;5030366;28;20128;-58
2021/12/07 08:01:30;;;;;;;10.35;5.65;;;;;;;-0.17;70.11;99430.03;5030415;28;20411;-56
2021/12/07 08:03:56;;;;;;;10.30;4.60;;;;;;;0.02;70.21;99459.06;5041610;28;20031;-62
2021/12/07 08:06:22;;;;;;;8.23;4.50;;;;;;;0.02;70.23;99477.50;5057130;28;20477;-60
2021/12/07 08:08:47;;;;;;;7.78;5.25;;;;;;;-0.05;70.75;99463.72;5057262;28;20112;-60
2021/12/07 08:11:13;;;;;;;9.10;4.93;;;;;;;0.17;70.15;99473.34;5060080;28;20035;-60
2021/12/07 08:13:40;;;;;;;10.95;5.15;;;;;;;0.08;70.42;99447.38;5065908;28;20484;-61
2021/12/07 08:16:06;;;;;;;7.88;4.72;;;;;;;0.10;70.90;99462.22;5052699;28;20032;-62
2021/12/07 08:18:32;;;;;;;6.93;4.18;;;;;;;0.21;70.07;99443.31;5063677;28;20033;-58
2021/12/07 08:20:57;;;;;;;8.50;4.88;;;;;;;0.24;70.08;99450.19;5058940;28;20029;-59
2021/12/07 08:23:23;;;;;;;11.43;5.07;;;;;;;0.24;69.84;99447.56;5055470;28;20031;-59
2021/12/07 08:25:49;;;;;;;8.10;4.60;;;;;;;0.22;70.12;99444.16;5065899;28;20114;-62
2021/12/07 08:28:19;;;;;;;9.43;4.60;;;;;;;0.21;70.71;99445.94;5055774;28;20035;-59
2021/12/07 08:30:46;;;;;;;10.25;4.78;;;;;;;0.25;70.19;99447.53;5065456;28;20072;-62
2021/12/07 08:33:12;;;;;;;9.57;4.88;;;;;;;0.32;69.45;99448.09;5065932;28;20384;-60
2021/12/07 08:35:37;;;;;;;9.57;5.20;;;;;;;0.32;70.29;99445.47;5057449;28;20040;-58
2021/12/07 08:38:04;;;;;;;12.80;5.10;;;;;;;0.36;70.85;99446.16;5070286;28;20124;-60
2021/12/07 08:40:32;;;;;;;8.38;4.45;;;;;;;0.51;69.92;99449.94;5059998;28;20033;-56
2021/12/07 08:43:00;;;;;;;10.43;5.40;;;;;;;0.55;69.89;99439.16;5062505;28;20032;-60
2021/12/07 08:45:27;;;;;;;10.63;5.40;;;;;;;0.62;69.86;99439.75;5067341;28;20098;-59
2021/12/07 08:47:54;;;;;;;10.90;5.38;;;;;;;0.75;69.21;99449.72;5056256;28;20028;-57
2021/12/07 08:50:23;;;;;;;10.60;5.43;;;;;;;0.73;69.50;99433.13;5068016;28;20096;-59
2021/12/07 08:52:50;;;;;;;10.15;5.22;;;;;;;0.35;69.32;99366.34;5060308;28;20449;-61
2021/12/07 09:00:33;;;;;;;9.40;5.20;;;;;;;0.82;68.80;99422.16;5059764;28;20028;-61
2021/12/07 09:02:59;;;;;;;9.40;5.07;;;;;;;0.67;69.56;99403.50;5061832;28;20108;-61
2021/12/07 09:05:25;;;;;;;10.20;5.18;;;;;;;0.73;69.37;99406.78;5066644;28;20036;-57
2021/12/07 09:07:51;;;;;;;8.68;5.13;;;;;;;0.75;70.19;99411.03;5055863;28;20488;-60
2021/12/07 09:10:18;;;;;;;9.10;5.30;;;;;;;0.85;69.62;99416.75;5067818;28;20036;-60
2021/12/07 09:12:44;;;;;;;9.88;5.90;;;;;;;0.90;69.36;99408.63;5060605;28;20412;-57
2021/12/07 09:15:10;;;;;;;8.82;5.55;;;;;;;0.91;68.96;99416.44;5060589;28;20033;-57
2021/12/07 09:17:36;;;;;;;13.43;5.55;;;;;;;0.81;68.71;99399.38;5068616;28;20078;-56
2021/12/07 09:20:05;;;;;;;13.43;5.38;;;;;;;0.93;68.97;99404.03;5054145;28;20083;-61
2021/12/07 09:22:32;;;;;;;11.20;5.88;;;;;;;0.93;68.21;99400.56;5065919;28;20076;-58
2021/12/07 09:24:58;;;;;;;11.23;5.78;;;;;;;0.88;68.77;99397.31;5062294;28;20905;-63
2021/12/07 09:27:24;;;;;;;14.13;6.25;;;;;;;0.84;68.67;99380.78;5039466;28;20037;-60
2021/12/07 09:29:50;;;;;;;12.15;5.90;;;;;;;0.89;69.37;99391.94;5068007;28;20044;-60
2021/12/07 09:32:16;;;;;;;17.15;7.85;;;;;;;0.90;68.97;99377.84;5056997;28;20033;-59
2021/12/07 09:34:42;;;;;;;11.98;6.57;;;;;;;1.04;68.82;99394.78;5063661;28;20457;-59
2021/12/07 09:37:07;;;;;;;8.32;5.55;;;;;;;1.03;68.03;99401.81;5046184;28;20036;-62
2021/12/07 09:39:33;;;;;;;13.18;6.88;;;;;;;0.92;68.48;99389.16;5056759;28;20393;-63
2021/12/07 09:41:59;;;;;;;13.70;6.90;;;;;;;0.85;69.22;99393.03;5068079;28;20520;-55
2021/12/07 09:44:24;;;;;;;10.20;6.15;;;;;;;0.87;68.79;99375.34;5057368;28;20035;-58
2021/12/07 09:46:50;;;;;;;12.57;6.65;;;;;;;0.81;69.29;99375.66;5062622;28;20032;-57
2021/12/07 09:49:16;;;;;;;11.95;6.85;;;;;;;0.83;69.43;99392.25;5064352;28;20056;-55
2021/12/07 09:51:42;;;;;;;12.32;6.32;;;;;;;0.84;68.38;99383.41;5055258;28;20029;-55
2021/12/07 09:54:09;;;;;;;14.65;6.80;;;;;;;0.70;69.42;99384.06;5039402;28;20070;-55
2021/12/07 09:56:36;;;;;;;12.15;6.35;;;;;;;0.74;69.32;99382.16;5064181;28;20087;-55
2021/12/07 09:59:02;;;;;;;12.13;6.82;;;;;;;0.68;69.58;99384.13;5062144;28;20036;-60
2021/12/07 10:01:29;;;;;;;11.77;6.20;;;;;;;0.67;69.76;99377.13;5056800;28;20111;-57
2021/12/07 10:03:55;;;;;;;11.77;6.47;;;;;;;0.64;70.05;99376.44;5068554;28;20035;-60
2021/12/07 10:06:21;;;;;;;11.63;6.15;;;;;;;0.69;69.84;99390.25;5065416;28;20036;-57
2021/12/07 10:08:48;;;;;;;9.52;6.10;;;;;;;0.68;69.93;99373.56;5060178;28;20036;-59
2021/12/07 10:11:15;;;;;;;13.07;6.47;;;;;;;0.01;70.46;99267.84;5058893;28;20095;-64
2021/12/07 10:13:44;;;;;;;11.73;6.40;;;;;;;0.65;70.42;99372.88;5064605;28;20029;-64
2021/12/07 10:16:13;;;;;;;12.13;6.50;;;;;;;0.75;70.53;99378.59;5043448;28;20025;-61
2021/12/07 10:18:42;;;;;;;11.00;6.35;;;;;;;0.78;70.20;99365.25;5046176;28;20029;-58
2021/12/07 10:21:14;;;;;;;16.15;6.78;;;;;;;0.81;70.31;99368.59;5063114;28;20063;-54
2021/12/07 10:23:45;;;;;;;10.73;6.20;;;;;;;0.78;70.17;99367.88;5071957;28;20495;-51
2021/12/07 10:26:17;;;;;;;10.88;6.45;;;;;;;0.91;69.83;99373.44;5039981;28;20076;-62
2021/12/07 10:28:47;;;;;;;12.35;6.53;;;;;;;0.84;69.97;99362.31;5062580;28;20037;-56
2021/12/07 10:31:15;;;;;;;11.10;6.88;;;;;;;0.83;70.05;99368.53;5063372;28;20366;-54
2021/12/07 10:34:01;;;;;;;9.43;6.35;;;;;;;0.74;70.31;99358.44;5055355;28;20406;-58
2021/12/07 10:36:51;;;;;;;14.38;7.55;;;;;;;0.81;70.30;99362.47;5043795;28;20032;-56
2021/12/07 10:39:26;;;;;;;12.40;7.32;;;;;;;0.88;70.37;99365.66;5058004;28;20055;-57
2021/12/07 10:42:00;;;;;;;14.38;7.47;;;;;;;0.73;69.13;99312.75;5067321;28;20083;-55
2021/12/07 10:44:30;;;;;;;16.55;8.40;;;;;;;0.83;70.37;99371.16;5057158;28;20036;-56
2021/12/07 10:47:23;;;;;;;14.07;7.20;;;;;;;0.92;70.36;99373.34;5060888;28;20094;-57
2021/12/07 10:49:52;;;;;;;12.80;7.25;;;;;;;0.95;69.95;99365.28;5066851;28;20044;-56
2021/12/07 10:52:32;;;;;;;11.90;7.28;;;;;;;0.95;69.79;99369.72;5055676;28;20678;-57
2021/12/07 10:55:06;;;;;;;15.05;7.65;;;;;;;0.93;70.21;99368.94;5060590;28;20036;-55
2021/12/07 10:57:45;;;;;;;15.30;8.27;;;;;;;0.90;69.76;99362.00;5065752;28;20043;-60
2021/12/07 11:00:26;;;;;;;11.15;6.97;;;;;;;0.85;70.50;99353.47;5039078;28;20031;-63
2021/12/07 11:02:57;;;;;;;12.13;6.60;;;;;;;0.84;70.50;99357.91;5061148;28;20032;-59
2021/12/07 11:05:27;;;;;;;14.30;7.68;;;;;;;0.57;70.76;99310.84;5049652;28;20036;-54
2021/12/07 11:07:53;;;;;;;13.68;6.90;;;;;;;0.85;70.89;99351.72;5064363;28;20374;-59
2021/12/07 11:10:28;;;;;;;12.20;7.63;;;;;;;0.92;70.91;99354.06;5055574;28;20389;-66
2021/12/07 11:15:31;;;;;;;13.85;7.63;;;;;;;0.99;70.54;99380.03;5055934;28;20061;-62
2021/12/07 11:18:10;;;;;;;10.50;7.07;;;;;;;1.06;70.50;99361.28;5067048;28;20029;-55
2021/12/07 11:20:37;;;;;;;10.98;7.05;;;;;;;0.91;70.68;99345.28;5057707;28;20035;-55
2021/12/07 11:23:34;;;;;;;11.23;7.18;;;;;;;1.10;70.58;99353.16;5058828;28;20033;-56
2021/12/07 11:31:37;;;;;;;12.18;6.30;;;;;;;1.13;70.50;99333.69;5063972;28;20039;-58
2021/12/07 11:34:08;;;;;;;12.45;7.32;;;;;;;1.11;70.49;99332.91;5051278;28;20045;-57
2021/12/07 11:36:44;;;;;;;13.60;7.55;;;;;;;1.07;70.85;99337.47;5057196;28;20040;-55
2021/12/07 11:39:21;;;;;;;;;;;;;;;1.33;70.29;99353.81;5057271;28;20526;-58
2021/12/07 11:41:51;;;;;;;15.05;7.22;;;;;;;1.20;70.43;99345.63;5065578;28;19912;-59
2021/12/07 11:44:21;;;;;;;14.65;7.45;;;;;;;1.17;70.91;99348.41;5053897;28;20499;-61
2021/12/07 11:46:51;;;;;;;12.75;6.90;;;;;;;1.13;70.37;99325.78;5061360;28;20090;-62
2021/12/07 11:49:22;;;;;;;14.55;7.32;;;;;;;1.20;70.81;99337.72;5063060;28;20112;-58
2021/12/07 11:51:52;;;;;;;13.23;7.78;;;;;;;1.18;70.78;99339.56;5053775;28;20028;-60
2021/12/07 11:54:19;;;;;;;15.43;7.28;;;;;;;1.12;71.27;99337.25;5065187;28;20496;-62
2021/12/07 11:56:47;;;;;;;12.35;7.45;;;;;;;1.29;70.04;99342.53;5057575;28;20487;-61
2021/12/07 11:59:13;;;;;;;15.98;7.72;;;;;;;1.16;70.18;99340.59;5058258;28;20037;-55
2021/12/07 12:01:41;;;;;;;16.70;8.32;;;;;;;1.19;69.83;99349.19;5066385;28;20038;-59
2021/12/07 12:04:06;;;;;;;15.45;8.18;;;;;;;1.07;70.66;99349.81;5051209;28;20028;-57
2021/12/07 12:06:32;;;;;;;14.60;8.43;;;;;;;1.00;71.09;99357.16;5059338;28;20033;-59
2021/12/07 12:08:59;;;;;;;15.40;6.57;;;;;;;1.02;71.07;99357.09;5063655;28;20115;-56
2021/12/07 12:11:40;;;;;;;13.52;7.72;;;;;;;0.73;71.34;99317.19;5066961;28;20028;-58
2021/12/07 12:14:38;;;;;;;11.52;7.60;;;;;;;1.04;70.87;99349.97;5055778;28;20024;-53
2021/12/07 12:17:33;;;;;;;13.63;7.30;;;;;;;1.20;70.84;99369.34;5062221;28;20037;-54
2021/12/07 12:20:10;;;;;;;12.13;7.30;;;;;;;1.12;71.09;99372.41;5068518;28;20036;-53
2021/12/07 12:22:51;;;;;;;15.77;7.63;;;;;;;1.11;71.40;99365.41;5052910;28;20047;-57
2021/12/07 12:25:21;;;;;;;10.43;6.22;;;;;;;1.16;70.72;99375.72;5052387;28;20048;-59
2021/12/07 12:27:49;;;;;;;13.18;7.10;;;;;;;1.12;70.83;99376.78;5052697;28;20409;-57
2021/12/07 12:30:31;;;;;;;12.60;7.07;;;;;;;1.11;71.10;99370.69;5054683;28;20032;-56
2021/12/07 12:33:00;;;;;;;12.60;7.22;;;;;;;1.09;70.78;99367.28;5053711;28;20032;-58
2021/12/07 12:35:40;;;;;;;13.65;6.80;;;;;;;1.12;71.32;99366.25;5035733;28;20037;-60
2021/12/07 12:38:19;;;;;;;14.57;7.47;;;;;;;1.18;71.11;99365.94;5053923;28;20028;-60
2021/12/07 12:40:57;;;;;;;13.90;7.65;;;;;;;1.21;70.75;99379.00;5054709;28;20377;-60
2021/12/07 12:43:40;;;;;;;12.57;7.22;;;;;;;1.24;70.96;99373.56;5053761;28;20436;-60
2021/12/07 12:46:06;;;;;;;12.15;7.38;;;;;;;1.17;71.08;99371.31;5053489;28;20080;-59
2021/12/07 12:48:32;;;;;;;12.55;6.90;;;;;;;0.99;70.98;99348.41;5053936;28;20116;-58
2021/12/07 12:50:58;;;;;;;13.25;7.18;;;;;;;1.13;71.59;99383.78;5053717;28;20070;-62
2021/12/07 12:53:25;;;;;;;13.43;7.00;;;;;;;1.16;71.52;99380.97;5053612;28;20040;-58
2021/12/07 12:55:56;;;;;;;17.33;7.28;;;;;;;1.21;71.95;99381.63;5053203;28;20500;-59
2021/12/07 12:58:28;;;;;;;15.73;7.20;;;;;;;1.23;71.60;99373.63;5053271;28;20037;-58
2021/12/07 13:01:08;;;;;;;15.00;7.30;;;;;;;0.80;71.78;99293.09;5052082;28;20044;-58
2021/12/07 13:03:42;;;;;;;14.80;7.95;;;;;;;1.24;71.99;99352.47;5051970;28;20028;-58
2021/12/07 13:06:13;;;;;;;13.77;7.78;;;;;;;1.25;71.49;99367.38;5052086;28;20049;-55
2021/12/07 13:09:00;;;;;;;14.68;7.53;;;;;;;1.32;71.99;99356.50;5053354;28;20152;-61
2021/12/07 13:11:36;;;;;;;13.68;7.07;;;;;;;1.32;72.08;99356.50;5053173;28;20033;-59
2021/12/07 13:14:05;;;;;;;18.10;8.63;;;;;;;0.99;71.85;99303.59;5052589;28;20025;-60
2021/12/07 13:16:33;;;;;;;15.70;8.00;;;;;;;1.27;72.18;99360.22;5043420;28;20064;-61
2021/12/07 13:19:09;;;;;;;14.32;8.23;;;;;;;1.33;72.14;99350.28;5032818;28;20183;-59